createdAt,value
2018-09-09T00:00:27.915Z,0.00
2018-09-09T00:01:27.903Z,0.00
2018-09-09T00:02:27.908Z,0.00
2018-09-09T00:03:27.875Z,0.00
2018-09-09T00:04:27.863Z,0.00
2018-09-09T00:05:27.861Z,0.00
2018-09-09T00:06:27.839Z,0.00
2018-09-09T00:07:27.828Z,0.00
2018-09-09T00:08:27.809Z,0.00
2018-09-09T00:09:27.797Z,0.00
2018-09-09T00:10:27.783Z,0.00
2018-09-09T00:11:27.767Z,0.00
2018-09-09T00:12:27.758Z,0.00
2018-09-09T00:13:27.741Z,0.00
2018-09-09T00:14:27.726Z,0.00
2018-09-09T00:15:27.714Z,0.00
2018-09-09T00:16:27.702Z,0.00
2018-09-09T00:17:27.688Z,0.00
2018-09-09T00:18:27.678Z,0.00
2018-09-09T00:19:27.658Z,0.00
2018-09-09T00:20:27.646Z,0.00
2018-09-09T00:21:27.631Z,0.00
2018-09-09T00:22:27.618Z,0.00
2018-09-09T00:23:27.605Z,0.00
2018-09-09T00:24:27.589Z,0.00
2018-09-09T00:25:27.573Z,0.00
2018-09-09T00:26:27.567Z,0.00
2018-09-09T00:27:27.551Z,0.00
2018-09-09T00:28:27.536Z,0.00
2018-09-09T00:29:27.522Z,0.00
2018-09-09T00:30:27.507Z,0.00
2018-09-09T00:31:27.493Z,0.00
2018-09-09T00:32:27.479Z,0.00
2018-09-09T00:33:27.471Z,0.00
2018-09-09T00:34:27.456Z,0.00
2018-09-09T00:35:27.440Z,0.00
2018-09-09T00:36:27.427Z,0.00
2018-09-09T00:37:27.412Z,0.00
2018-09-09T00:38:27.398Z,0.00
2018-09-09T00:39:27.385Z,0.00
2018-09-09T00:40:27.371Z,0.00
2018-09-09T00:41:27.358Z,0.00
2018-09-09T00:42:27.343Z,0.00
2018-09-09T00:43:27.331Z,0.00
2018-09-09T00:44:27.314Z,0.00
2018-09-09T00:45:27.312Z,0.00
2018-09-09T00:46:27.290Z,0.00
2018-09-09T00:47:27.274Z,0.00
2018-09-09T00:48:27.260Z,0.00
2018-09-09T00:49:27.247Z,0.00
2018-09-09T00:50:27.235Z,0.00
2018-09-09T00:51:27.222Z,0.00
2018-09-09T00:52:27.206Z,0.00
2018-09-09T00:53:27.192Z,0.00
2018-09-09T00:54:27.180Z,0.00
2018-09-09T00:55:27.168Z,0.00
2018-09-09T00:56:27.150Z,0.00
2018-09-09T00:57:27.136Z,0.00
2018-09-09T00:58:27.134Z,0.00
2018-09-09T00:59:27.109Z,0.00
2018-09-09T01:00:27.104Z,0.00
2018-09-09T01:01:27.080Z,0.00
2018-09-09T01:02:27.067Z,0.00
2018-09-09T01:03:27.061Z,0.00
2018-09-09T01:04:27.043Z,0.00
2018-09-09T01:05:27.030Z,0.00
2018-09-09T01:06:27.012Z,0.00
2018-09-09T01:07:26.999Z,0.00
2018-09-09T01:08:26.986Z,0.00
2018-09-09T01:09:26.979Z,0.00
2018-09-09T01:10:26.963Z,0.00
2018-09-09T01:11:26.944Z,0.00
2018-09-09T01:12:26.928Z,0.00
2018-09-09T01:13:26.917Z,0.00
2018-09-09T01:14:26.903Z,0.00
2018-09-09T01:15:26.897Z,0.00
2018-09-09T01:16:26.874Z,0.00
2018-09-09T01:17:26.861Z,0.00
2018-09-09T01:18:26.850Z,0.00
2018-09-09T01:19:26.833Z,0.00
2018-09-09T01:20:26.818Z,0.00
2018-09-09T01:21:26.803Z,0.00
2018-09-09T01:22:26.793Z,0.00
2018-09-09T01:23:26.780Z,0.00
2018-09-09T01:24:26.763Z,0.00
2018-09-09T01:25:26.751Z,0.00
2018-09-09T01:26:26.734Z,0.00
2018-09-09T01:27:26.723Z,0.00
2018-09-09T01:28:26.715Z,0.00
2018-09-09T01:29:26.693Z,0.00
2018-09-09T01:30:26.679Z,0.00
2018-09-09T01:31:26.668Z,0.00
2018-09-09T01:32:26.652Z,0.00
2018-09-09T01:33:26.637Z,0.00
2018-09-09T01:34:26.622Z,0.00
2018-09-09T01:35:26.610Z,0.00
2018-09-09T01:36:26.604Z,0.00
2018-09-09T01:37:26.581Z,0.00
2018-09-09T01:38:26.570Z,0.00
2018-09-09T01:39:26.554Z,0.00
2018-09-09T01:40:26.542Z,0.00
2018-09-09T01:41:26.524Z,0.00
2018-09-09T01:42:26.520Z,0.00
2018-09-09T01:43:26.502Z,0.00
2018-09-09T01:44:26.495Z,0.00
2018-09-09T01:45:26.469Z,0.00
2018-09-09T01:46:26.457Z,0.00
2018-09-09T01:47:26.442Z,0.00
2018-09-09T01:48:26.430Z,0.00
2018-09-09T01:49:26.421Z,0.00
2018-09-09T01:50:26.407Z,0.00
2018-09-09T01:51:26.396Z,0.00
2018-09-09T01:52:26.372Z,0.00
2018-09-09T01:53:26.357Z,0.00
2018-09-09T01:54:26.342Z,0.00
2018-09-09T01:55:26.329Z,0.00
2018-09-09T01:56:26.317Z,0.00
2018-09-09T01:57:26.301Z,0.00
2018-09-09T01:58:26.287Z,0.00
2018-09-09T01:59:26.273Z,0.00
2018-09-09T02:00:26.259Z,0.00
2018-09-09T02:01:26.244Z,0.00
2018-09-09T02:02:26.230Z,0.00
2018-09-09T02:03:26.217Z,0.00
2018-09-09T02:04:26.207Z,0.00
2018-09-09T02:05:26.189Z,0.00
2018-09-09T02:06:26.187Z,0.00
2018-09-09T02:07:26.160Z,0.00
2018-09-09T02:08:26.146Z,0.00
2018-09-09T02:09:26.143Z,0.00
2018-09-09T02:10:26.118Z,0.00
2018-09-09T02:11:26.105Z,0.00
2018-09-09T02:12:26.092Z,0.00
2018-09-09T02:13:26.076Z,0.00
2018-09-09T02:14:26.062Z,0.00
2018-09-09T02:15:26.050Z,0.00
2018-09-09T02:16:26.038Z,0.00
2018-09-09T02:17:26.021Z,0.00
2018-09-09T02:18:26.006Z,0.00
2018-09-09T02:19:25.991Z,0.00
2018-09-09T02:20:25.982Z,0.00
2018-09-09T02:21:25.965Z,0.00
2018-09-09T02:22:25.951Z,0.00
2018-09-09T02:23:25.937Z,0.00
2018-09-09T02:24:25.922Z,0.00
2018-09-09T02:25:25.908Z,0.00
2018-09-09T02:26:25.894Z,0.00
2018-09-09T02:27:25.879Z,0.00
2018-09-09T02:28:25.868Z,0.00
2018-09-09T02:29:25.861Z,0.00
2018-09-09T02:30:25.837Z,0.00
2018-09-09T02:31:25.823Z,0.00
2018-09-09T02:32:25.809Z,0.00
2018-09-09T02:33:25.796Z,0.00
2018-09-09T02:34:25.785Z,0.00
2018-09-09T02:35:25.768Z,0.00
2018-09-09T02:36:25.764Z,0.00
2018-09-09T02:37:25.741Z,0.00
2018-09-09T02:38:25.730Z,0.00
2018-09-09T02:39:25.722Z,0.00
2018-09-09T02:40:25.698Z,0.00
2018-09-09T02:41:25.684Z,0.00
2018-09-09T02:42:25.670Z,0.00
2018-09-09T02:43:25.658Z,0.00
2018-09-09T02:44:25.657Z,0.00
2018-09-09T02:45:25.629Z,0.00
2018-09-09T02:46:25.615Z,0.00
2018-09-09T02:47:25.601Z,0.00
2018-09-09T02:48:25.587Z,0.00
2018-09-09T02:49:25.574Z,0.00
2018-09-09T02:50:25.558Z,0.00
2018-09-09T02:51:25.547Z,0.00
2018-09-09T02:52:25.531Z,0.00
2018-09-09T02:53:25.523Z,0.00
2018-09-09T02:54:25.504Z,0.00
2018-09-09T02:55:25.489Z,0.00
2018-09-09T02:56:25.477Z,0.00
2018-09-09T02:57:25.461Z,0.00
2018-09-09T02:58:25.448Z,0.00
2018-09-09T02:59:25.435Z,0.00
2018-09-09T03:00:25.417Z,0.00
2018-09-09T03:01:25.407Z,0.00
2018-09-09T03:02:25.392Z,0.00
2018-09-09T03:03:25.379Z,0.00
2018-09-09T03:04:25.384Z,0.00
2018-09-09T03:05:25.346Z,0.00
2018-09-09T03:06:25.335Z,0.00
2018-09-09T03:07:25.320Z,0.00
2018-09-09T03:08:25.305Z,0.00
2018-09-09T03:09:25.290Z,0.00
2018-09-09T03:10:25.278Z,0.00
2018-09-09T03:11:25.265Z,0.00
2018-09-09T03:12:25.257Z,0.00
2018-09-09T03:13:25.238Z,0.00
2018-09-09T03:14:25.220Z,0.00
2018-09-09T03:15:25.205Z,0.00
2018-09-09T03:16:25.188Z,0.00
2018-09-09T03:17:25.180Z,0.00
2018-09-09T03:18:25.165Z,0.00
2018-09-09T03:19:25.161Z,0.00
2018-09-09T03:20:25.136Z,0.00
2018-09-09T03:21:25.118Z,0.00
2018-09-09T03:22:25.106Z,0.00
2018-09-09T03:23:25.091Z,0.00
2018-09-09T03:24:25.077Z,0.00
2018-09-09T03:25:25.070Z,0.00
2018-09-09T03:26:25.048Z,0.00
2018-09-09T03:27:25.034Z,0.00
2018-09-09T03:28:25.066Z,0.00
2018-09-09T03:29:25.012Z,0.00
2018-09-09T03:30:24.996Z,0.00
2018-09-09T03:31:24.979Z,0.00
2018-09-09T03:32:24.971Z,0.00
2018-09-09T03:33:24.949Z,0.00
2018-09-09T03:34:24.935Z,0.00
2018-09-09T03:35:24.922Z,0.00
2018-09-09T03:36:24.907Z,0.00
2018-09-09T03:37:24.893Z,0.00
2018-09-09T03:38:24.879Z,0.00
2018-09-09T03:39:24.872Z,0.00
2018-09-09T03:40:24.853Z,0.00
2018-09-09T03:41:24.836Z,0.00
2018-09-09T03:42:24.823Z,0.00
2018-09-09T03:43:24.807Z,0.00
2018-09-09T03:44:24.793Z,0.00
2018-09-09T03:45:24.779Z,0.00
2018-09-09T03:46:24.765Z,0.00
2018-09-09T03:47:24.754Z,0.00
2018-09-09T03:48:24.734Z,0.00
2018-09-09T03:49:24.726Z,0.00
2018-09-09T03:50:24.709Z,0.00
2018-09-09T03:51:24.692Z,0.00
2018-09-09T03:52:24.678Z,0.00
2018-09-09T03:53:24.663Z,0.00
2018-09-09T03:54:24.651Z,0.00
2018-09-09T03:55:24.640Z,0.00
2018-09-09T03:56:24.626Z,0.00
2018-09-09T03:57:24.608Z,0.00
2018-09-09T03:58:24.595Z,0.00
2018-09-09T03:59:24.578Z,0.00
2018-09-09T04:00:24.566Z,0.00
2018-09-09T04:01:24.549Z,0.00
2018-09-09T04:02:24.535Z,0.00
2018-09-09T04:03:24.528Z,0.00
2018-09-09T04:04:24.506Z,0.00
2018-09-09T04:05:24.493Z,0.00
2018-09-09T04:06:24.477Z,0.00
2018-09-09T04:07:24.464Z,0.00
2018-09-09T04:08:24.454Z,0.00
2018-09-09T04:09:24.436Z,0.00
2018-09-09T04:10:24.425Z,0.00
2018-09-09T04:11:24.408Z,0.00
2018-09-09T04:12:24.397Z,0.00
2018-09-09T04:13:24.382Z,0.00
2018-09-09T04:14:24.364Z,0.00
2018-09-09T04:15:24.350Z,0.00
2018-09-09T04:16:24.336Z,0.00
2018-09-09T04:17:24.326Z,0.00
2018-09-09T04:18:24.308Z,0.00
2018-09-09T04:19:24.301Z,0.00
2018-09-09T04:20:24.282Z,0.00
2018-09-09T04:21:24.265Z,0.00
2018-09-09T04:22:24.257Z,0.00
2018-09-09T04:23:24.241Z,0.00
2018-09-09T04:24:24.223Z,0.00
2018-09-09T04:25:24.206Z,0.00
2018-09-09T04:26:24.193Z,0.00
2018-09-09T04:27:24.180Z,0.00
2018-09-09T04:28:24.164Z,0.00
2018-09-09T04:29:24.150Z,0.00
2018-09-09T04:30:24.141Z,0.00
2018-09-09T04:31:24.123Z,0.00
2018-09-09T04:32:24.107Z,0.00
2018-09-09T04:33:24.096Z,0.00
2018-09-09T04:34:24.086Z,0.00
2018-09-09T04:35:24.067Z,0.00
2018-09-09T04:36:24.051Z,0.00
2018-09-09T04:37:24.038Z,0.00
2018-09-09T04:38:24.027Z,0.00
2018-09-09T04:39:24.009Z,0.00
2018-09-09T04:40:23.994Z,0.00
2018-09-09T04:41:23.980Z,0.00
2018-09-09T04:42:23.969Z,0.00
2018-09-09T04:43:23.950Z,0.00
2018-09-09T04:44:23.937Z,0.00
2018-09-09T04:45:23.924Z,0.00
2018-09-09T04:46:24.054Z,0.00
2018-09-09T04:47:23.893Z,0.00
2018-09-09T04:48:23.879Z,0.00
2018-09-09T04:49:23.865Z,0.00
2018-09-09T04:50:23.858Z,0.00
2018-09-09T04:51:23.837Z,0.00
2018-09-09T04:52:23.824Z,0.00
2018-09-09T04:53:23.813Z,0.00
2018-09-09T04:54:23.799Z,0.00
2018-09-09T04:55:23.785Z,0.00
2018-09-09T04:56:23.766Z,0.00
2018-09-09T04:57:23.751Z,0.00
2018-09-09T04:58:23.738Z,0.00
2018-09-09T04:59:23.723Z,0.00
2018-09-09T05:00:23.711Z,0.00
2018-09-09T05:01:23.765Z,0.00
2018-09-09T05:02:23.681Z,0.00
2018-09-09T05:03:23.672Z,0.00
2018-09-09T05:04:23.651Z,0.00
2018-09-09T05:05:23.641Z,0.00
2018-09-09T05:06:23.627Z,0.00
2018-09-09T05:07:23.610Z,0.00
2018-09-09T05:08:23.600Z,0.00
2018-09-09T05:09:23.583Z,5.63
2018-09-09T05:10:23.569Z,5.63
2018-09-09T05:11:23.556Z,5.63
2018-09-09T05:12:23.537Z,5.63
2018-09-09T05:13:23.542Z,5.63
2018-09-09T05:14:23.512Z,5.63
2018-09-09T05:15:23.496Z,5.63
2018-09-09T05:16:23.480Z,5.63
2018-09-09T05:17:23.466Z,5.63
2018-09-09T05:18:23.451Z,5.63
2018-09-09T05:19:23.449Z,5.63
2018-09-09T05:20:23.426Z,11.25
2018-09-09T05:21:23.408Z,11.25
2018-09-09T05:22:23.395Z,11.25
2018-09-09T05:23:23.390Z,11.25
2018-09-09T05:24:23.364Z,11.25
2018-09-09T05:25:23.351Z,11.25
2018-09-09T05:26:23.337Z,11.25
2018-09-09T05:27:23.327Z,11.25
2018-09-09T05:28:23.308Z,11.25
2018-09-09T05:29:23.294Z,11.25
2018-09-09T05:30:23.284Z,11.25
2018-09-09T05:31:23.272Z,11.25
2018-09-09T05:32:23.258Z,5.63
2018-09-09T05:33:23.245Z,5.63
2018-09-09T05:34:23.227Z,5.63
2018-09-09T05:35:23.214Z,5.63
2018-09-09T05:36:23.197Z,11.25
2018-09-09T05:37:23.186Z,11.25
2018-09-09T05:38:23.171Z,11.25
2018-09-09T05:39:23.155Z,11.25
2018-09-09T05:40:23.140Z,11.25
2018-09-09T05:41:23.131Z,11.25
2018-09-09T05:42:23.173Z,16.88
2018-09-09T05:43:23.105Z,16.88
2018-09-09T05:44:23.082Z,16.88
2018-09-09T05:45:23.069Z,16.88
2018-09-09T05:46:23.057Z,16.88
2018-09-09T05:47:23.042Z,16.88
2018-09-09T05:48:23.027Z,16.88
2018-09-09T05:49:23.011Z,16.88
2018-09-09T05:50:22.998Z,16.88
2018-09-09T05:51:22.993Z,22.50
2018-09-09T05:52:22.972Z,22.50
2018-09-09T05:53:22.965Z,22.50
2018-09-09T05:54:22.951Z,22.50
2018-09-09T05:55:22.927Z,22.50
2018-09-09T05:56:22.912Z,22.50
2018-09-09T05:57:22.911Z,22.50
2018-09-09T05:58:22.884Z,22.50
2018-09-09T05:59:22.870Z,22.50
2018-09-09T06:00:22.855Z,22.50
2018-09-09T06:01:22.844Z,28.13
2018-09-09T06:02:22.828Z,28.13
2018-09-09T06:03:22.818Z,28.13
2018-09-09T06:04:22.797Z,28.13
2018-09-09T06:05:22.784Z,28.13
2018-09-09T06:06:22.773Z,28.13
2018-09-09T06:07:22.755Z,28.13
2018-09-09T06:08:22.742Z,33.75
2018-09-09T06:09:22.730Z,33.75
2018-09-09T06:10:22.717Z,39.38
2018-09-09T06:11:22.709Z,39.38
2018-09-09T06:12:22.684Z,39.38
2018-09-09T06:13:22.669Z,39.38
2018-09-09T06:14:22.655Z,50.63
2018-09-09T06:15:22.643Z,45.00
2018-09-09T06:16:22.627Z,50.63
2018-09-09T06:17:22.614Z,56.25
2018-09-09T06:18:22.600Z,56.25
2018-09-09T06:19:22.590Z,61.88
2018-09-09T06:20:22.572Z,61.88
2018-09-09T06:21:22.557Z,61.88
2018-09-09T06:22:22.545Z,61.88
2018-09-09T06:23:22.530Z,56.25
2018-09-09T06:24:22.518Z,50.63
2018-09-09T06:25:22.511Z,50.63
2018-09-09T06:26:22.489Z,50.63
2018-09-09T06:27:22.476Z,50.63
2018-09-09T06:28:22.569Z,50.63
2018-09-09T06:29:22.452Z,50.63
2018-09-09T06:30:22.433Z,56.25
2018-09-09T06:31:22.428Z,56.25
2018-09-09T06:32:22.407Z,56.25
2018-09-09T06:33:22.393Z,61.88
2018-09-09T06:34:22.381Z,61.88
2018-09-09T06:35:22.405Z,67.50
2018-09-09T06:36:22.350Z,73.13
2018-09-09T06:37:22.335Z,73.13
2018-09-09T06:38:22.326Z,73.13
2018-09-09T06:39:22.307Z,78.75
2018-09-09T06:40:22.297Z,78.75
2018-09-09T06:41:22.282Z,78.75
2018-09-09T06:42:22.269Z,84.38
2018-09-09T06:43:22.267Z,90.00
2018-09-09T06:44:22.240Z,90.00
2018-09-09T06:45:22.232Z,101.25
2018-09-09T06:46:22.256Z,118.13
2018-09-09T06:47:22.203Z,123.75
2018-09-09T06:48:22.189Z,135.00
2018-09-09T06:49:22.183Z,140.63
2018-09-09T06:50:22.162Z,140.63
2018-09-09T06:51:22.192Z,163.13
2018-09-09T06:52:22.135Z,185.63
2018-09-09T06:53:22.123Z,185.63
2018-09-09T06:54:22.108Z,185.63
2018-09-09T06:55:22.146Z,225.00
2018-09-09T06:56:22.084Z,303.75
2018-09-09T06:57:22.073Z,382.50
2018-09-09T06:58:22.061Z,405.00
2018-09-09T06:59:22.052Z,568.13
2018-09-09T07:00:22.035Z,1164.38
2018-09-09T07:01:22.023Z,770.63
2018-09-09T07:02:22.117Z,1344.38
2018-09-09T07:03:22.002Z,438.75
2018-09-09T07:04:21.992Z,348.75
2018-09-09T07:05:21.978Z,337.50
2018-09-09T07:06:21.969Z,438.75
2018-09-09T07:07:21.967Z,1372.50
2018-09-09T07:08:21.946Z,1749.38
2018-09-09T07:09:21.937Z,1265.63
2018-09-09T07:10:21.933Z,354.38
2018-09-09T07:11:22.015Z,1631.25
2018-09-09T07:12:21.914Z,1524.38
2018-09-09T07:13:21.905Z,1383.75
2018-09-09T07:14:21.896Z,1068.75
2018-09-09T07:15:21.891Z,1231.88
2018-09-09T07:16:21.880Z,843.75
2018-09-09T07:17:21.881Z,292.50
2018-09-09T07:18:21.866Z,388.13
2018-09-09T07:19:21.855Z,416.25
2018-09-09T07:20:21.847Z,663.75
2018-09-09T07:21:21.842Z,579.38
2018-09-09T07:22:21.835Z,725.63
2018-09-09T07:23:21.828Z,753.75
2018-09-09T07:24:21.816Z,973.13
2018-09-09T07:25:21.812Z,843.75
2018-09-09T07:26:21.799Z,945.00
2018-09-09T07:27:21.795Z,483.75
2018-09-09T07:28:21.819Z,399.38
2018-09-09T07:29:21.779Z,376.88
2018-09-09T07:30:21.771Z,416.25
2018-09-09T07:31:21.765Z,658.13
2018-09-09T07:32:21.756Z,511.88
2018-09-09T07:33:21.754Z,354.38
2018-09-09T07:34:21.861Z,388.13
2018-09-09T07:35:21.733Z,320.63
2018-09-09T07:36:21.728Z,697.50
2018-09-09T07:37:21.749Z,320.63
2018-09-09T07:38:21.711Z,410.63
2018-09-09T07:39:21.710Z,433.13
2018-09-09T07:40:21.694Z,427.50
2018-09-09T07:41:21.685Z,286.88
2018-09-09T07:42:21.678Z,247.50
2018-09-09T07:43:21.671Z,241.88
2018-09-09T07:44:21.660Z,230.63
2018-09-09T07:45:21.654Z,236.25
2018-09-09T07:46:21.695Z,213.75
2018-09-09T07:47:21.645Z,174.38
2018-09-09T07:48:21.629Z,163.13
2018-09-09T07:49:21.621Z,146.25
2018-09-09T07:50:21.639Z,129.38
2018-09-09T07:51:21.600Z,118.13
2018-09-09T07:52:21.590Z,118.13
2018-09-09T07:53:21.581Z,106.88
2018-09-09T07:54:21.571Z,101.25
2018-09-09T07:55:21.568Z,95.63
2018-09-09T07:56:21.590Z,84.38
2018-09-09T07:57:21.543Z,78.75
2018-09-09T07:58:21.532Z,78.75
2018-09-09T07:59:21.525Z,73.13
2018-09-09T08:00:21.527Z,73.13
2018-09-09T08:01:21.500Z,73.13
2018-09-09T08:02:21.490Z,73.13
2018-09-09T08:03:21.481Z,67.50
2018-09-09T08:04:21.473Z,67.50
2018-09-09T08:05:21.461Z,67.50
2018-09-09T08:06:21.446Z,67.50
2018-09-09T08:07:21.435Z,67.50
2018-09-09T08:08:21.431Z,67.50
2018-09-09T08:09:21.414Z,67.50
2018-09-09T08:10:21.404Z,73.13
2018-09-09T08:11:21.398Z,73.13
2018-09-09T08:12:21.385Z,73.13
2018-09-09T08:13:21.370Z,78.75
2018-09-09T08:14:21.364Z,84.38
2018-09-09T08:15:21.352Z,90.00
2018-09-09T08:16:21.337Z,95.63
2018-09-09T08:17:21.333Z,101.25
2018-09-09T08:18:21.380Z,106.88
2018-09-09T08:19:21.303Z,106.88
2018-09-09T08:20:21.291Z,101.25
2018-09-09T08:21:21.282Z,95.63
2018-09-09T08:22:21.269Z,95.63
2018-09-09T08:23:21.260Z,95.63
2018-09-09T08:24:21.253Z,95.63
2018-09-09T08:25:21.238Z,95.63
2018-09-09T08:26:21.234Z,95.63
2018-09-09T08:27:21.216Z,95.63
2018-09-09T08:28:21.205Z,90.00
2018-09-09T08:29:21.192Z,90.00
2018-09-09T08:30:21.187Z,95.63
2018-09-09T08:31:21.171Z,95.63
2018-09-09T08:32:21.154Z,101.25
2018-09-09T08:33:21.147Z,112.50
2018-09-09T08:34:21.136Z,118.13
2018-09-09T08:35:21.124Z,123.75
2018-09-09T08:36:21.114Z,123.75
2018-09-09T08:37:21.105Z,129.38
2018-09-09T08:38:21.088Z,140.63
2018-09-09T08:39:21.081Z,151.88
2018-09-09T08:40:21.067Z,191.25
2018-09-09T08:41:21.054Z,241.88
2018-09-09T08:42:21.043Z,241.88
2018-09-09T08:43:21.032Z,258.75
2018-09-09T08:44:21.024Z,309.38
2018-09-09T08:45:21.068Z,320.63
2018-09-09T08:46:21.000Z,393.75
2018-09-09T08:47:20.990Z,371.25
2018-09-09T08:48:20.976Z,405.00
2018-09-09T08:49:20.977Z,405.00
2018-09-09T08:50:20.960Z,438.75
2018-09-09T08:51:20.946Z,421.88
2018-09-09T08:52:20.938Z,455.63
2018-09-09T08:53:20.926Z,483.75
2018-09-09T08:54:20.920Z,489.38
2018-09-09T08:55:20.908Z,596.25
2018-09-09T08:56:20.904Z,568.13
2018-09-09T08:57:20.886Z,646.88
2018-09-09T08:58:20.877Z,433.13
2018-09-09T08:59:20.877Z,388.13
2018-09-09T09:00:20.859Z,714.38
2018-09-09T09:01:20.848Z,871.88
2018-09-09T09:02:20.840Z,500.63
2018-09-09T09:03:20.833Z,438.75
2018-09-09T09:04:20.829Z,793.13
2018-09-09T09:05:20.814Z,675.00
2018-09-09T09:06:20.811Z,787.50
2018-09-09T09:07:20.812Z,489.38
2018-09-09T09:08:20.795Z,590.63
2018-09-09T09:09:20.785Z,725.63
2018-09-09T09:10:20.779Z,545.63
2018-09-09T09:11:20.769Z,455.63
2018-09-09T09:12:20.759Z,720.00
2018-09-09T09:13:20.753Z,596.25
2018-09-09T09:14:20.743Z,528.75
2018-09-09T09:15:20.738Z,410.63
2018-09-09T09:16:20.729Z,523.13
2018-09-09T09:17:20.725Z,455.63
2018-09-09T09:18:20.716Z,416.25
2018-09-09T09:19:20.711Z,393.75
2018-09-09T09:20:20.703Z,478.13
2018-09-09T09:21:20.692Z,444.38
2018-09-09T09:22:20.684Z,427.50
2018-09-09T09:23:20.680Z,466.88
2018-09-09T09:24:20.693Z,472.50
2018-09-09T09:25:20.664Z,596.25
2018-09-09T09:26:20.656Z,438.75
2018-09-09T09:27:20.649Z,511.88
2018-09-09T09:28:20.639Z,697.50
2018-09-09T09:29:20.634Z,697.50
2018-09-09T09:30:20.633Z,961.88
2018-09-09T09:31:20.619Z,568.13
2018-09-09T09:32:20.614Z,725.63
2018-09-09T09:33:20.603Z,545.63
2018-09-09T09:34:20.658Z,596.25
2018-09-09T09:35:20.599Z,714.38
2018-09-09T09:36:20.587Z,472.50
2018-09-09T09:37:20.576Z,416.25
2018-09-09T09:38:20.573Z,416.25
2018-09-09T09:39:20.597Z,416.25
2018-09-09T09:40:20.558Z,416.25
2018-09-09T09:41:20.549Z,393.75
2018-09-09T09:42:20.541Z,450.00
2018-09-09T09:43:20.543Z,371.25
2018-09-09T09:44:20.532Z,371.25
2018-09-09T09:45:20.520Z,371.25
2018-09-09T09:46:20.513Z,388.13
2018-09-09T09:47:20.519Z,410.63
2018-09-09T09:48:20.495Z,399.38
2018-09-09T09:49:20.489Z,376.88
2018-09-09T09:50:20.482Z,410.63
2018-09-09T09:51:20.476Z,371.25
2018-09-09T09:52:20.468Z,360.00
2018-09-09T09:53:20.580Z,337.50
2018-09-09T09:54:20.452Z,320.63
2018-09-09T09:55:20.488Z,315.00
2018-09-09T09:56:20.434Z,303.75
2018-09-09T09:57:20.428Z,292.50
2018-09-09T09:58:20.418Z,270.00
2018-09-09T09:59:20.414Z,258.75
2018-09-09T10:00:20.405Z,253.13
2018-09-09T10:01:20.395Z,270.00
2018-09-09T10:02:20.385Z,275.63
2018-09-09T10:03:20.381Z,286.88
2018-09-09T10:04:20.368Z,275.63
2018-09-09T10:05:20.360Z,253.13
2018-09-09T10:06:20.352Z,247.50
2018-09-09T10:07:20.345Z,247.50
2018-09-09T10:08:20.336Z,230.63
2018-09-09T10:09:20.328Z,219.38
2018-09-09T10:10:20.323Z,213.75
2018-09-09T10:11:20.318Z,213.75
2018-09-09T10:12:20.303Z,213.75
2018-09-09T10:13:20.297Z,225.00
2018-09-09T10:14:20.296Z,230.63
2018-09-09T10:15:20.276Z,270.00
2018-09-09T10:16:20.271Z,247.50
2018-09-09T10:17:20.270Z,270.00
2018-09-09T10:18:20.255Z,275.63
2018-09-09T10:19:20.243Z,275.63
2018-09-09T10:20:20.239Z,286.88
2018-09-09T10:21:20.227Z,281.25
2018-09-09T10:22:20.219Z,281.25
2018-09-09T10:23:20.208Z,270.00
2018-09-09T10:24:20.199Z,286.88
2018-09-09T10:25:20.191Z,309.38
2018-09-09T10:26:20.183Z,315.00
2018-09-09T10:27:20.173Z,309.38
2018-09-09T10:28:20.169Z,303.75
2018-09-09T10:29:20.170Z,286.88
2018-09-09T10:30:20.152Z,281.25
2018-09-09T10:31:20.139Z,275.63
2018-09-09T10:32:20.131Z,275.63
2018-09-09T10:33:20.122Z,292.50
2018-09-09T10:34:20.114Z,360.00
2018-09-09T10:35:20.108Z,371.25
2018-09-09T10:36:20.096Z,371.25
2018-09-09T10:37:20.090Z,360.00
2018-09-09T10:38:20.081Z,371.25
2018-09-09T10:39:20.074Z,393.75
2018-09-09T10:40:20.062Z,393.75
2018-09-09T10:41:20.058Z,376.88
2018-09-09T10:42:20.052Z,393.75
2018-09-09T10:43:20.046Z,376.88
2018-09-09T10:44:20.032Z,360.00
2018-09-09T10:45:20.026Z,331.88
2018-09-09T10:46:20.139Z,331.88
2018-09-09T10:47:20.015Z,331.88
2018-09-09T10:48:20.004Z,331.88
2018-09-09T10:49:20.005Z,343.13
2018-09-09T10:50:19.986Z,348.75
2018-09-09T10:51:19.983Z,326.25
2018-09-09T10:52:19.972Z,326.25
2018-09-09T10:53:19.965Z,303.75
2018-09-09T10:54:19.959Z,315.00
2018-09-09T10:55:19.954Z,331.88
2018-09-09T10:56:19.942Z,331.88
2018-09-09T10:57:19.936Z,331.88
2018-09-09T10:58:19.926Z,320.63
2018-09-09T10:59:19.919Z,365.63
2018-09-09T11:00:19.914Z,382.50
2018-09-09T11:01:19.905Z,365.63
2018-09-09T11:02:19.903Z,337.50
2018-09-09T11:03:19.891Z,326.25
2018-09-09T11:04:19.884Z,309.38
2018-09-09T11:05:19.878Z,298.13
2018-09-09T11:06:19.870Z,281.25
2018-09-09T11:07:19.863Z,275.63
2018-09-09T11:08:19.862Z,286.88
2018-09-09T11:09:19.851Z,315.00
2018-09-09T11:10:19.843Z,292.50
2018-09-09T11:11:19.835Z,292.50
2018-09-09T11:12:19.829Z,298.13
2018-09-09T11:13:19.827Z,292.50
2018-09-09T11:14:19.814Z,309.38
2018-09-09T11:15:19.809Z,298.13
2018-09-09T11:16:19.807Z,286.88
2018-09-09T11:17:19.798Z,320.63
2018-09-09T11:18:19.787Z,292.50
2018-09-09T11:19:19.796Z,309.38
2018-09-09T11:20:19.777Z,253.13
2018-09-09T11:21:19.774Z,241.88
2018-09-09T11:22:19.763Z,225.00
2018-09-09T11:23:19.760Z,213.75
2018-09-09T11:24:19.785Z,213.75
2018-09-09T11:25:19.745Z,213.75
2018-09-09T11:26:19.730Z,213.75
2018-09-09T11:27:19.730Z,230.63
2018-09-09T11:28:19.724Z,292.50
2018-09-09T11:29:19.710Z,298.13
2018-09-09T11:30:19.698Z,326.25
2018-09-09T11:31:19.708Z,281.25
2018-09-09T11:32:19.681Z,253.13
2018-09-09T11:33:19.675Z,264.38
2018-09-09T11:34:19.678Z,281.25
2018-09-09T11:35:19.663Z,264.38
2018-09-09T11:36:19.685Z,326.25
2018-09-09T11:37:19.649Z,348.75
2018-09-09T11:38:19.639Z,275.63
2018-09-09T11:39:19.640Z,275.63
2018-09-09T11:40:19.624Z,236.25
2018-09-09T11:41:19.614Z,213.75
2018-09-09T11:42:19.613Z,202.50
2018-09-09T11:43:19.613Z,196.88
2018-09-09T11:44:19.599Z,191.25
2018-09-09T11:45:19.591Z,191.25
2018-09-09T11:46:19.578Z,185.63
2018-09-09T11:47:19.579Z,185.63
2018-09-09T11:48:19.569Z,174.38
2018-09-09T11:49:19.556Z,185.63
2018-09-09T11:50:19.552Z,185.63
2018-09-09T11:51:19.546Z,230.63
2018-09-09T11:52:19.530Z,292.50
2018-09-09T11:53:19.626Z,191.25
2018-09-09T11:54:19.518Z,202.50
2018-09-09T11:55:19.508Z,213.75
2018-09-09T11:56:19.504Z,298.13
2018-09-09T11:57:19.492Z,337.50
2018-09-09T11:58:19.482Z,331.88
2018-09-09T11:59:19.483Z,343.13
2018-09-09T12:00:19.467Z,337.50
2018-09-09T12:01:19.460Z,326.25
2018-09-09T12:02:19.454Z,331.88
2018-09-09T12:03:19.457Z,320.63
2018-09-09T12:04:19.440Z,315.00
2018-09-09T12:05:19.431Z,298.13
2018-09-09T12:06:19.425Z,281.25
2018-09-09T12:07:19.427Z,247.50
2018-09-09T12:08:19.406Z,275.63
2018-09-09T12:09:19.400Z,275.63
2018-09-09T12:10:19.396Z,270.00
2018-09-09T12:11:19.391Z,264.38
2018-09-09T12:12:19.379Z,247.50
2018-09-09T12:13:19.370Z,241.88
2018-09-09T12:14:19.374Z,247.50
2018-09-09T12:15:19.361Z,253.13
2018-09-09T12:16:19.348Z,241.88
2018-09-09T12:17:19.346Z,241.88
2018-09-09T12:18:19.356Z,241.88
2018-09-09T12:19:19.332Z,241.88
2018-09-09T12:20:19.338Z,241.88
2018-09-09T12:21:19.321Z,241.88
2018-09-09T12:22:19.308Z,241.88
2018-09-09T12:23:19.303Z,241.88
2018-09-09T12:24:19.305Z,241.88
2018-09-09T12:25:19.290Z,241.88
2018-09-09T12:26:19.286Z,236.25
2018-09-09T12:27:19.274Z,236.25
2018-09-09T12:28:19.265Z,241.88
2018-09-09T12:29:19.270Z,236.25
2018-09-09T12:30:19.257Z,236.25
2018-09-09T12:31:19.245Z,236.25
2018-09-09T12:32:19.326Z,236.25
2018-09-09T12:33:19.234Z,236.25
2018-09-09T12:34:19.226Z,236.25
2018-09-09T12:35:19.217Z,236.25
2018-09-09T12:36:19.210Z,236.25
2018-09-09T12:37:19.209Z,236.25
2018-09-09T12:38:19.197Z,236.25
2018-09-09T12:39:19.189Z,236.25
2018-09-09T12:40:19.181Z,236.25
2018-09-09T12:41:19.178Z,236.25
2018-09-09T12:42:19.183Z,236.25
2018-09-09T12:43:19.160Z,236.25
2018-09-09T12:44:19.153Z,236.25
2018-09-09T12:45:19.145Z,236.25
2018-09-09T12:46:19.140Z,236.25
2018-09-09T12:47:19.284Z,236.25
2018-09-09T12:48:19.127Z,236.25
2018-09-09T12:49:19.133Z,236.25
2018-09-09T12:50:19.114Z,236.25
2018-09-09T12:51:19.112Z,241.88
2018-09-09T12:52:19.097Z,236.25